Time;durP1;ratioP1;P1;durP2;ratioP2;P2;SDS_P1;SDS_P2;PMS_P1;PMS_P2;Temp;Humidity;BMP_temperature;BMP_pressure;BME280_temperature;BME280_humidity;BME280_pressure;Samples;Min_cycle;Max_cycle;Signal;HPM_P1;HPM_P2
2021/10/25 00:01:53;;;;;;;5.63;2.03;;;;;;;15.95;59.03;100497.97;5036024;28;20024;-77
2021/10/25 00:04:22;;;;;;;2.13;2.03;;;;;;;15.97;58.72;100498.38;5036209;28;20040;-77
2021/10/25 00:06:48;;;;;;;4.18;2.30;;;;;;;15.77;59.14;100499.09;5035869;28;20500;-76
2021/10/25 00:09:14;;;;;;;2.20;2.00;;;;;;;15.76;59.22;100495.44;5036105;28;20060;-77
2021/10/25 00:11:45;;;;;;;2.00;1.90;;;;;;;15.65;59.47;100494.56;5036319;28;20025;-77
2021/10/25 00:14:11;;;;;;;3.15;1.80;;;;;;;15.72;58.88;100486.22;5036052;28;20466;-76
2021/10/25 00:16:43;;;;;;;4.40;2.13;;;;;;;15.76;58.85;100489.84;5048114;28;20059;-75
2021/10/25 00:19:17;;;;;;;3.40;1.77;;;;;;;15.80;58.42;100492.69;5053226;28;20040;-78
2021/10/25 00:21:46;;;;;;;2.85;2.55;;;;;;;15.65;59.24;100492.56;5048399;28;20029;-76
2021/10/25 00:24:12;;;;;;;3.17;2.03;;;;;;;15.76;59.02;100480.63;5052804;28;20403;-78
2021/10/25 00:26:37;;;;;;;3.85;2.08;;;;;;;15.67;59.51;100473.38;5052390;28;20029;-76
2021/10/25 00:29:09;;;;;;;4.22;2.10;;;;;;;15.81;58.87;100481.06;5052228;28;20025;-77
2021/10/25 00:31:40;;;;;;;6.28;1.90;;;;;;;15.82;58.86;100474.28;5052232;28;20033;-77
2021/10/25 00:34:12;;;;;;;9.70;2.53;;;;;;;15.88;58.51;100480.31;5052195;28;20027;-76
2021/10/25 00:36:41;;;;;;;3.90;2.50;;;;;;;15.93;58.03;100469.53;5053535;28;20375;-76
2021/10/25 00:39:09;;;;;;;4.80;2.53;;;;;;;15.75;58.22;100453.75;5053960;28;20086;-76
2021/10/25 00:41:38;;;;;;;1.83;1.73;;;;;;;15.76;58.11;100458.19;5052323;28;20037;-76
2021/10/25 00:44:07;;;;;;;2.20;1.83;;;;;;;15.81;58.43;100449.38;5053598;28;20036;-76
2021/10/25 00:46:36;;;;;;;2.70;1.80;;;;;;;15.72;58.18;100452.56;5053879;28;20057;-80
2021/10/25 00:49:01;;;;;;;2.40;2.13;;;;;;;15.65;59.01;100442.09;5052328;28;20029;-76
2021/10/25 00:51:27;;;;;;;2.42;2.10;;;;;;;15.76;58.37;100446.97;5052353;28;20029;-76
2021/10/25 00:53:53;;;;;;;3.55;2.15;;;;;;;15.66;58.73;100449.31;5052542;28;20348;-76
2021/10/25 00:56:22;;;;;;;3.00;1.90;;;;;;;15.70;58.55;100460.53;5051894;28;20044;-75
2021/10/25 00:58:47;;;;;;;3.75;2.20;;;;;;;15.71;58.92;100451.75;5051962;28;20028;-76
2021/10/25 01:01:13;;;;;;;3.42;1.88;;;;;;;15.67;58.87;100442.50;5051932;28;20029;-76
2021/10/25 01:03:43;;;;;;;2.30;2.10;;;;;;;15.67;58.64;100448.13;5051864;28;20115;-76
2021/10/25 01:06:15;;;;;;;2.20;2.03;;;;;;;15.73;58.81;100447.75;5052117;28;20032;-76
2021/10/25 01:08:45;;;;;;;3.42;2.40;;;;;;;15.74;58.77;100441.75;5048532;28;20051;-76
2021/10/25 01:11:11;;;;;;;3.35;2.10;;;;;;;15.78;58.28;100434.16;5052047;28;20467;-76
2021/10/25 01:13:37;;;;;;;3.20;2.08;;;;;;;15.68;59.19;100438.50;5051968;28;20348;-76
2021/10/25 01:16:07;;;;;;;2.55;2.22;;;;;;;15.71;58.66;100429.31;5033315;28;20056;-76
2021/10/25 01:18:33;;;;;;;3.38;2.15;;;;;;;15.77;58.54;100426.94;5019359;28;20029;-76
2021/10/25 01:21:02;;;;;;;1.63;1.52;;;;;;;15.64;59.00;100420.84;5019556;28;20055;-76
2021/10/25 01:23:28;;;;;;;3.28;2.55;;;;;;;15.70;58.94;100418.47;5020054;28;20029;-76
2021/10/25 01:25:55;;;;;;;3.35;2.38;;;;;;;15.70;58.95;100410.84;5019768;28;20036;-76
2021/10/25 01:28:24;;;;;;;3.42;1.75;;;;;;;15.71;59.04;100417.28;5037300;28;20028;-76
2021/10/25 01:30:52;;;;;;;2.15;2.05;;;;;;;15.57;59.21;100425.59;5019001;28;20029;-76
2021/10/25 01:33:18;;;;;;;3.15;2.25;;;;;;;15.60;59.58;100417.19;5019120;28;20379;-76
2021/10/25 01:35:44;;;;;;;2.88;2.55;;;;;;;15.62;59.09;100420.41;5019122;28;20136;-76
2021/10/25 01:38:10;;;;;;;2.83;2.63;;;;;;;15.60;59.47;100421.97;5018726;28;20044;-76
2021/10/25 01:40:41;;;;;;;4.15;1.77;;;;;;;15.64;59.30;100422.84;5018921;28;20033;-76
2021/10/25 01:43:07;;;;;;;1.90;1.80;;;;;;;15.55;59.38;100434.38;5018744;28;20017;-76
2021/10/25 01:45:36;;;;;;;4.07;2.40;;;;;;;15.58;59.59;100422.38;5018663;28;20074;-76
2021/10/25 01:48:03;;;;;;;3.97;2.03;;;;;;;15.48;59.93;100417.50;5018533;28;20029;-77
2021/10/25 01:50:29;;;;;;;2.20;2.05;;;;;;;15.51;59.38;100405.53;5018772;28;20052;-76
2021/10/25 01:52:58;;;;;;;2.13;1.90;;;;;;;15.58;59.09;100408.34;5018836;28;20463;-76
2021/10/25 01:55:24;;;;;;;5.50;2.05;;;;;;;15.49;59.72;100402.28;5018740;28;20467;-76
2021/10/25 01:57:56;;;;;;;2.45;2.00;;;;;;;15.48;60.08;100409.09;5018980;28;20032;-77
2021/10/25 02:00:27;;;;;;;2.10;1.90;;;;;;;15.46;59.76;100397.47;5018400;28;20038;-77
2021/10/25 02:02:56;;;;;;;2.33;2.13;;;;;;;15.43;60.21;100401.84;5018716;28;20040;-76
2021/10/25 02:05:27;;;;;;;2.92;2.15;;;;;;;15.42;60.33;100413.47;5018573;28;20463;-76
2021/10/25 02:07:52;;;;;;;2.55;2.15;;;;;;;15.51;59.93;100416.75;5018512;28;20096;-76
2021/10/25 02:10:18;;;;;;;3.42;1.98;;;;;;;15.43;59.79;100404.66;5002104;28;20464;-77
2021/10/25 02:12:46;;;;;;;2.33;2.05;;;;;;;15.43;60.27;100393.44;5018231;28;20475;-76
2021/10/25 02:15:12;;;;;;;2.40;2.05;;;;;;;15.57;59.74;100394.75;5018209;28;20061;-76
2021/10/25 02:17:37;;;;;;;6.18;2.42;;;;;;;15.53;59.91;100394.72;5018433;28;20431;-76
2021/10/25 02:20:04;;;;;;;2.20;2.00;;;;;;;15.49;60.20;100398.69;5018422;28;20025;-76
2021/10/25 02:22:29;;;;;;;2.58;2.30;;;;;;;15.46;59.89;100395.47;5018012;28;20092;-76
2021/10/25 02:24:56;;;;;;;3.08;2.15;;;;;;;15.47;60.22;100401.88;5017889;28;20033;-76
2021/10/25 02:27:23;;;;;;;3.40;2.08;;;;;;;15.48;59.64;100397.88;5035527;28;20029;-77
2021/10/25 02:29:49;;;;;;;1.92;1.80;;;;;;;15.52;59.76;100401.50;5017678;28;20037;-76
2021/10/25 02:32:18;;;;;;;3.92;2.60;;;;;;;15.46;60.52;100391.88;5017979;28;20037;-76
2021/10/25 02:34:51;;;;;;;2.80;2.15;;;;;;;15.50;59.86;100387.09;5035591;28;20540;-76
2021/10/25 02:37:19;;;;;;;2.65;2.45;;;;;;;15.46;59.78;100398.28;5017820;28;20025;-76
2021/10/25 02:39:50;;;;;;;2.70;2.20;;;;;;;15.36;60.33;100398.22;5017844;28;20030;-76
2021/10/25 02:42:20;;;;;;;2.53;2.33;;;;;;;15.51;60.20;100397.09;5017719;28;20030;-76
2021/10/25 02:44:45;;;;;;;4.63;2.15;;;;;;;15.53;60.02;100397.50;5018283;28;20029;-76
2021/10/25 02:47:11;;;;;;;2.97;2.10;;;;;;;15.44;60.27;100403.44;5017308;28;20030;-75
2021/10/25 02:49:37;;;;;;;2.45;2.25;;;;;;;15.50;59.87;100401.13;5018193;28;20049;-76
2021/10/25 02:52:03;;;;;;;3.28;2.10;;;;;;;15.49;59.67;100410.69;5017079;28;20525;-76
2021/10/25 02:54:29;;;;;;;2.10;1.90;;;;;;;15.41;60.11;100409.84;5017241;28;20028;-76
2021/10/25 02:57:01;;;;;;;3.38;2.42;;;;;;;15.42;59.94;100408.66;5018030;28;20418;-76
2021/10/25 02:59:27;;;;;;;1.85;1.75;;;;;;;15.34;60.41;100414.59;5017463;28;20091;-76
2021/10/25 03:01:53;;;;;;;2.50;2.30;;;;;;;15.39;60.43;100422.66;5017191;28;20029;-76
2021/10/25 03:04:18;;;;;;;2.53;2.33;;;;;;;15.44;60.32;100419.47;5017694;28;20033;-75
2021/10/25 03:06:47;;;;;;;13.32;8.77;;;;;;;15.48;60.37;100411.91;5017432;28;20026;-76
2021/10/25 03:09:13;;;;;;;52.55;35.75;;;;;;;15.44;60.34;100416.66;5017146;28;20043;-76
2021/10/25 03:11:38;;;;;;;95.70;64.28;;;;;;;15.39;59.73;100417.88;5017157;28;20025;-76
2021/10/25 03:14:04;;;;;;;52.55;36.63;;;;;;;15.45;60.26;100416.31;5016875;28;20033;-82
2021/10/25 03:16:30;;;;;;;40.88;28.83;;;;;;;15.43;59.92;100406.66;5016741;28;20068;-76
2021/10/25 03:18:56;;;;;;;20.98;15.32;;;;;;;15.42;60.25;100416.28;5017008;28;20084;-76
2021/10/25 03:21:26;;;;;;;23.35;17.17;;;;;;;15.48;60.89;100414.69;5016889;28;20037;-76
2021/10/25 03:23:58;;;;;;;12.70;10.25;;;;;;;15.56;60.40;100421.97;5034336;28;20033;-76
2021/10/25 03:26:24;;;;;;;8.13;5.82;;;;;;;15.53;60.83;100417.13;5017427;28;20040;-75
2021/10/25 03:28:50;;;;;;;6.60;4.40;;;;;;;15.44;60.61;100409.06;5016627;28;20040;-75
2021/10/25 03:31:20;;;;;;;13.95;9.35;;;;;;;15.45;60.88;100404.28;5017317;28;20026;-76
2021/10/25 03:33:52;;;;;;;11.00;9.85;;;;;;;15.42;61.07;100417.06;5016934;28;20083;-76
2021/10/25 03:36:24;;;;;;;8.15;7.35;;;;;;;15.52;60.00;100421.16;5017468;28;20028;-75
2021/10/25 03:38:53;;;;;;;5.93;4.55;;;;;;;15.54;59.15;100418.75;5016630;28;20060;-76
2021/10/25 03:41:24;;;;;;;5.05;4.45;;;;;;;15.54;59.54;100413.13;5017130;28;20486;-75
2021/10/25 03:43:59;;;;;;;3.42;3.13;;;;;;;15.52;59.28;100418.34;5016566;28;20025;-76
2021/10/25 03:49:04;;;;;;;3.22;3.03;;;;;;;15.47;59.70;100410.28;5033903;28;20037;-75
2021/10/25 03:51:29;;;;;;;7.50;3.30;;;;;;;15.62;58.59;100414.00;5016355;28;20025;-76
2021/10/25 03:59:32;;;;;;;5.32;4.20;;;;;;;15.49;58.83;100424.72;5034266;28;20144;-75
2021/10/25 04:26:29;;;;;;;2.45;1.98;;;;;;;15.41;59.25;100411.88;5054032;28;20052;-75
2021/10/25 04:28:58;;;;;;;4.05;2.10;;;;;;;15.40;60.23;100418.66;5036268;28;20031;-75
2021/10/25 04:31:24;;;;;;;2.63;2.40;;;;;;;15.35;60.96;100428.25;5035900;28;20024;-75
2021/10/25 04:33:52;;;;;;;2.83;2.03;;;;;;;15.27;60.99;100420.16;5036121;28;20466;-75
2021/10/25 04:36:20;;;;;;;4.57;2.20;;;;;;;15.26;60.78;100421.34;5035591;28;20125;-75
2021/10/25 04:38:48;;;;;;;3.42;2.85;;;;;;;15.38;60.07;100415.44;5035497;28;20035;-75
2021/10/25 04:41:19;;;;;;;4.80;1.98;;;;;;;15.31;60.28;100421.00;5035734;28;20037;-76
2021/10/25 04:43:47;;;;;;;3.90;2.78;;;;;;;15.30;60.61;100419.41;5035573;28;20064;-75
2021/10/25 04:46:13;;;;;;;3.10;2.58;;;;;;;15.36;59.53;100412.22;5035508;28;20522;-81
2021/10/25 04:48:38;;;;;;;4.97;2.42;;;;;;;15.26;60.18;100435.38;5035714;28;20112;-75
2021/10/25 04:51:08;;;;;;;2.95;2.63;;;;;;;15.30;59.96;100420.19;5035800;28;20506;-75
2021/10/25 04:53:37;;;;;;;2.50;2.00;;;;;;;15.42;59.77;100421.88;5039551;28;20063;-75
2021/10/25 04:56:05;;;;;;;3.92;2.08;;;;;;;15.30;60.58;100425.81;5039701;28;20037;-75
2021/10/25 04:58:33;;;;;;;7.63;2.67;;;;;;;15.36;60.64;100426.25;5039393;28;20087;-75
2021/10/25 05:00:59;;;;;;;3.85;2.90;;;;;;;15.31;59.86;100426.59;5041754;28;20420;-75
2021/10/25 05:03:25;;;;;;;2.70;2.28;;;;;;;15.11;60.88;100423.25;5040043;28;20032;-76
2021/10/25 05:05:53;;;;;;;3.10;2.35;;;;;;;15.10;62.15;100428.03;5039735;28;20481;-75
2021/10/25 05:08:28;;;;;;;5.85;2.55;;;;;;;15.18;61.14;100424.13;5039133;28;20031;-75
2021/10/25 05:10:54;;;;;;;5.35;2.58;;;;;;;15.18;61.06;100426.13;5039128;28;20025;-76
2021/10/25 05:13:20;;;;;;;4.03;2.95;;;;;;;15.02;61.89;100415.19;5039621;28;20040;-76
2021/10/25 05:15:52;;;;;;;5.07;2.75;;;;;;;14.94;61.64;100413.50;5044562;28;20045;-75
2021/10/25 05:18:17;;;;;;;7.75;2.42;;;;;;;14.92;62.44;100405.47;5055531;28;20033;-75
2021/10/25 05:20:46;;;;;;;3.17;2.03;;;;;;;14.94;61.90;100407.88;5055286;28;20040;-78
2021/10/25 05:23:12;;;;;;;4.60;2.50;;;;;;;15.03;61.42;100408.38;5055336;28;20021;-75
2021/10/25 05:25:37;;;;;;;3.28;2.50;;;;;;;14.94;60.69;100405.09;5055327;28;20044;-75
2021/10/25 05:28:03;;;;;;;3.53;2.85;;;;;;;14.97;60.81;100401.53;5038678;28;20099;-75
2021/10/25 05:30:29;;;;;;;4.22;2.83;;;;;;;15.01;60.76;100402.34;5055245;28;20049;-78
2021/10/25 05:33:01;;;;;;;6.38;2.78;;;;;;;15.05;61.36;100414.38;5056807;28;20043;-76
2021/10/25 05:35:30;;;;;;;2.60;2.35;;;;;;;15.16;59.75;100398.47;5055141;28;20085;-76
2021/10/25 05:37:56;;;;;;;2.67;2.08;;;;;;;15.09;59.48;100403.22;5055344;28;20417;-76
2021/10/25 05:40:22;;;;;;;5.53;2.70;;;;;;;15.29;58.90;100407.38;5055035;28;20029;-76
2021/10/25 05:42:47;;;;;;;3.38;2.65;;;;;;;15.34;59.45;100415.44;5055448;28;20096;-76
2021/10/25 05:45:13;;;;;;;3.60;2.25;;;;;;;15.38;59.36;100421.03;5055319;28;20029;-76
2021/10/25 05:47:40;;;;;;;3.85;2.45;;;;;;;15.53;58.38;100425.56;5055070;28;20123;-76
2021/10/25 05:50:06;;;;;;;5.45;2.95;;;;;;;15.55;58.36;100428.75;5055407;28;20530;-75
2021/10/25 05:52:35;;;;;;;3.10;2.40;;;;;;;15.57;58.57;100434.81;5055713;28;20048;-77
2021/10/25 05:55:02;;;;;;;2.80;2.28;;;;;;;15.62;58.42;100437.25;5055299;28;20037;-76
2021/10/25 05:57:28;;;;;;;4.80;2.72;;;;;;;15.70;59.33;100438.91;5054938;28;20098;-77
2021/10/25 05:59:57;;;;;;;3.45;2.53;;;;;;;15.67;58.71;100439.72;5055139;28;20044;-76
2021/10/25 06:02:29;;;;;;;4.45;2.47;;;;;;;15.75;58.94;100439.75;5054888;28;20048;-76
2021/10/25 06:04:55;;;;;;;8.27;4.97;;;;;;;15.78;57.48;100436.16;5055087;28;20025;-77
2021/10/25 06:07:23;;;;;;;7.07;4.80;;;;;;;15.82;57.07;100437.78;5054665;28;20036;-77
2021/10/25 06:09:55;;;;;;;3.67;2.88;;;;;;;16.00;57.26;100435.06;5054979;28;20029;-76
2021/10/25 06:12:23;;;;;;;4.13;2.97;;;;;;;15.97;57.18;100441.47;5055175;28;20036;-77
2021/10/25 06:14:51;;;;;;;5.15;3.00;;;;;;;16.02;57.23;100434.66;5054220;28;20033;-76
2021/10/25 06:17:40;;;;;;;6.00;3.00;;;;;;;16.22;56.63;100436.78;5037822;28;20029;-77
2021/10/25 06:20:03;;;;;;;6.72;3.10;;;;;;;16.12;57.13;100448.75;5054538;28;20474;-76
2021/10/25 06:22:37;;;;;;;2.92;2.50;;;;;;;16.31;56.75;100444.84;5038079;28;20119;-76
2021/10/25 06:25:04;;;;;;;3.33;3.00;;;;;;;16.18;57.59;100446.38;5037819;28;20116;-77
2021/10/25 06:27:29;;;;;;;4.07;3.40;;;;;;;16.23;56.95;100443.19;5037389;28;20028;-76
2021/10/25 06:29:55;;;;;;;3.60;2.60;;;;;;;16.17;56.51;100441.97;5037698;28;20056;-76
2021/10/25 06:32:23;;;;;;;4.18;2.78;;;;;;;16.30;56.04;100433.97;5037581;28;20052;-76
2021/10/25 06:34:56;;;;;;;2.63;2.28;;;;;;;16.35;55.77;100442.84;5037600;28;20036;-76
2021/10/25 06:37:27;;;;;;;4.07;2.30;;;;;;;16.35;55.42;100453.25;5037983;28;20417;-76
2021/10/25 06:39:58;;;;;;;3.15;1.83;;;;;;;16.39;55.71;100451.25;5038227;28;20477;-76
2021/10/25 06:42:27;;;;;;;5.68;2.15;;;;;;;16.47;55.11;100452.91;5033814;28;20029;-77
2021/10/25 06:45:02;;;;;;;3.70;2.17;;;;;;;16.58;55.23;100453.75;5037683;28;20025;-76
2021/10/25 06:47:31;;;;;;;2.25;2.05;;;;;;;16.61;55.79;100457.75;5037046;28;20068;-76
2021/10/25 06:49:59;;;;;;;5.03;2.50;;;;;;;16.69;55.02;100457.38;5037209;28;20124;-75
2021/10/25 06:52:27;;;;;;;5.28;2.42;;;;;;;16.79;54.95;100463.47;5037338;28;20383;-76
2021/10/25 06:54:54;;;;;;;3.72;2.38;;;;;;;16.76;54.98;100479.09;5037023;28;20040;-76
2021/10/25 06:57:19;;;;;;;2.72;2.53;;;;;;;16.82;55.05;100468.25;5037063;28;20037;-73
2021/10/25 06:59:45;;;;;;;3.50;2.28;;;;;;;16.83;54.94;100475.50;5036518;28;20120;-74
2021/10/25 07:02:11;;;;;;;4.32;2.40;;;;;;;16.86;55.45;100460.66;5036923;28;20053;-73
2021/10/25 07:04:40;;;;;;;2.20;1.95;;;;;;;16.97;55.46;100467.09;5036670;28;20085;-74
2021/10/25 07:07:06;;;;;;;3.80;3.38;;;;;;;17.10;54.89;100468.31;5036609;28;20028;-74
2021/10/25 07:09:37;;;;;;;8.65;4.03;;;;;;;17.14;55.00;100474.72;5037154;28;20029;-74
2021/10/25 07:12:06;;;;;;;7.80;5.40;;;;;;;17.20;55.08;100477.94;5054599;28;20025;-74
2021/10/25 07:14:36;;;;;;;8.77;5.65;;;;;;;17.29;54.84;100481.97;5036080;28;20500;-74
2021/10/25 07:17:25;;;;;;;9.60;6.03;;;;;;;17.52;54.13;100475.97;5051866;28;20088;-74
2021/10/25 08:06:25;;;;;;;7.00;3.88;;;;;;;18.80;49.84;100508.59;5053376;28;20029;-74
2021/10/25 08:11:39;;;;;;;4.22;3.53;;;;;;;18.65;50.00;100501.41;5053518;28;20068;-72
2021/10/25 08:14:09;;;;;;;4.03;3.13;;;;;;;18.70;50.99;100489.72;5052159;28;20128;-72
2021/10/25 08:16:55;;;;;;;5.20;3.00;;;;;;;18.85;50.36;100496.06;5024752;28;20057;-71
2021/10/25 08:19:24;;;;;;;6.07;2.60;;;;;;;18.68;50.25;100505.44;5015944;28;20104;-78
2021/10/25 08:22:08;;;;;;;3.55;3.22;;;;;;;18.78;49.96;100505.38;5033874;28;20036;-73
2021/10/25 08:24:39;;;;;;;4.88;3.72;;;;;;;18.84;50.31;100512.19;5016247;28;20036;-74
2021/10/25 08:27:08;;;;;;;3.83;2.95;;;;;;;18.52;50.72;100505.88;5032776;28;20029;-73
2021/10/25 08:29:40;;;;;;;3.55;2.38;;;;;;;18.37;50.95;100512.78;5015686;28;20033;-74
2021/10/25 08:34:41;;;;;;;4.97;2.00;;;;;;;18.03;52.07;100508.44;5033838;28;20539;-74
2021/10/25 08:40:00;;;;;;;4.65;2.28;;;;;;;18.47;51.82;100515.56;5033642;28;20033;-75
2021/10/25 08:42:29;;;;;;;6.65;2.10;;;;;;;18.63;51.43;100512.25;5033602;28;20038;-74
2021/10/25 08:45:15;;;;;;;2.75;2.40;;;;;;;18.81;51.51;100510.19;5016114;28;20320;-74
2021/10/25 08:47:44;;;;;;;2.72;2.45;;;;;;;18.97;51.43;100498.41;5015879;28;20083;-74
2021/10/25 08:50:17;;;;;;;2.80;2.40;;;;;;;19.11;50.92;100506.78;5015992;28;20055;-74
2021/10/25 08:52:46;;;;;;;6.75;4.47;;;;;;;19.10;50.17;100501.56;5015204;28;20464;-74
2021/10/25 08:55:16;;;;;;;5.10;4.28;;;;;;;19.30;50.35;100504.63;5015785;28;20468;-74
2021/10/25 08:57:47;;;;;;;5.93;4.15;;;;;;;19.46;50.51;100501.28;5015781;28;20476;-74
2021/10/25 09:00:19;;;;;;;6.10;4.18;;;;;;;19.59;49.79;100503.19;5015512;28;20434;-74
2021/10/25 09:02:57;;;;;;;6.32;4.20;;;;;;;19.51;49.50;100498.81;5015461;28;20033;-74
2021/10/25 09:05:26;;;;;;;5.57;3.45;;;;;;;19.52;49.13;100508.09;5015361;28;20494;-74
2021/10/25 09:08:04;;;;;;;7.70;2.90;;;;;;;19.25;49.07;100505.06;5015340;28;20025;-74
2021/10/25 09:10:37;;;;;;;3.05;2.53;;;;;;;19.35;49.56;100507.81;5015096;28;20439;-75
2021/10/25 09:13:11;;;;;;;8.40;2.63;;;;;;;19.34;49.35;100511.84;5015881;28;20025;-74
2021/10/25 09:15:40;;;;;;;5.95;2.97;;;;;;;19.30;49.50;100505.44;5015045;28;20144;-74
2021/10/25 09:18:16;;;;;;;8.43;2.88;;;;;;;19.26;49.62;100507.47;5015381;28;20026;-74
2021/10/25 09:21:05;;;;;;;3.88;2.63;;;;;;;19.40;49.48;100511.41;5015108;28;20034;-75
2021/10/25 09:23:40;;;;;;;3.83;2.83;;;;;;;19.35;49.33;100512.66;5033420;28;20029;-74
2021/10/25 09:26:13;;;;;;;5.40;3.67;;;;;;;19.06;50.05;100517.69;5033182;28;20026;-74
2021/10/25 09:28:44;;;;;;;6.22;3.28;;;;;;;19.08;50.15;100515.28;5015192;28;20024;-75
2021/10/25 09:31:17;;;;;;;6.32;3.78;;;;;;;19.09;50.32;100511.22;5015486;28;20444;-74
2021/10/25 09:33:52;;;;;;;3.15;2.85;;;;;;;19.06;49.80;100506.41;5015272;28;20026;-74
2021/10/25 09:36:21;;;;;;;5.63;2.90;;;;;;;19.04;50.02;100520.94;5015264;28;20033;-74
2021/10/25 09:38:59;;;;;;;;;;;;;;;;;;;;;
2021/10/25 09:49:37;;;;;;;4.00;3.10;;;;;;;19.14;49.49;100516.44;5036520;28;20084;-74
2021/10/25 09:52:07;;;;;;;3.10;2.70;;;;;;;19.12;49.32;100516.03;5018722;28;20027;-74
2021/10/25 09:54:33;;;;;;;4.47;2.67;;;;;;;19.23;49.30;100522.44;5018723;28;20049;-75
2021/10/25 09:57:21;;;;;;;3.85;2.53;;;;;;;19.35;48.93;100516.28;5019161;28;20368;-74
2021/10/25 09:59:55;;;;;;;4.05;3.15;;;;;;;19.38;49.37;100498.50;5017168;28;20032;-75
2021/10/25 10:02:22;;;;;;;6.93;4.68;;;;;;;19.65;49.42;100517.66;5018998;28;20038;-74
2021/10/25 10:05:03;;;;;;;9.00;5.85;;;;;;;19.73;49.29;100524.88;5018380;28;20026;-74
2021/10/25 10:07:29;;;;;;;10.02;5.80;;;;;;;19.73;49.64;100527.69;5036557;28;20058;-75
2021/10/25 10:09:57;;;;;;;6.95;4.60;;;;;;;19.71;49.54;100518.84;5018386;28;20033;-75
2021/10/25 10:12:26;;;;;;;6.35;3.70;;;;;;;19.65;50.44;100517.66;5018137;28;20136;-77
2021/10/25 10:14:54;;;;;;;4.13;3.13;;;;;;;19.52;50.36;100533.47;5036731;28;20021;-75
2021/10/25 10:17:51;;;;;;;5.38;3.25;;;;;;;19.36;50.48;100537.63;5037879;28;20120;-75
2021/10/25 10:20:26;;;;;;;4.35;2.17;;;;;;;19.29;51.14;100525.59;5055519;28;20025;-75
2021/10/25 10:22:58;;;;;;;3.17;2.17;;;;;;;19.03;51.08;100518.53;5037872;28;20111;-75
2021/10/25 10:25:38;;;;;;;1.65;1.55;;;;;;;18.79;51.72;100518.25;5038380;28;20040;-75
2021/10/25 10:28:07;;;;;;;1.65;1.50;;;;;;;18.81;51.78;100513.00;5037703;28;20032;-75
2021/10/25 10:30:56;;;;;;;2.83;1.70;;;;;;;18.78;51.78;100496.91;5038017;28;20033;-76
2021/10/25 10:33:43;;;;;;;1.38;1.23;;;;;;;18.81;52.13;100506.56;5038217;28;20067;-75
2021/10/25 10:36:22;;;;;;;3.35;1.75;;;;;;;18.55;52.37;100511.50;5055626;28;20029;-76
2021/10/25 10:39:06;;;;;;;4.47;1.58;;;;;;;18.55;52.72;100505.06;5037881;28;20533;-75
2021/10/25 10:41:37;;;;;;;3.17;1.95;;;;;;;18.49;53.16;100512.34;5055553;28;20120;-75
2021/10/25 10:44:06;;;;;;;2.45;1.77;;;;;;;18.27;53.78;100517.25;5040270;28;20424;-76
2021/10/25 10:46:40;;;;;;;2.85;1.60;;;;;;;18.20;53.98;100511.63;5060096;28;20032;-75
2021/10/25 10:49:38;;;;;;;1.80;1.70;;;;;;;18.19;53.51;100504.41;5036450;28;20033;-76
2021/10/25 10:55:12;;;;;;;2.25;2.03;;;;;;;18.19;54.04;100498.75;5056857;28;20079;-75
2021/10/25 11:00:35;;;;;;;1.73;1.42;;;;;;;18.40;53.75;100492.25;5055071;28;20135;-75
2021/10/25 11:03:07;;;;;;;4.72;2.03;;;;;;;18.57;53.38;100508.25;5037559;28;20028;-75
2021/10/25 11:05:38;;;;;;;5.22;1.80;;;;;;;18.37;53.27;100499.50;5036921;28;20061;-75
2021/10/25 11:08:13;;;;;;;2.10;1.70;;;;;;;18.52;52.86;100489.78;5054789;28;20032;-76
2021/10/25 11:10:42;;;;;;;4.47;2.00;;;;;;;18.54;53.15;100487.34;5037779;28;20040;-76
2021/10/25 11:13:27;;;;;;;2.85;1.75;;;;;;;18.48;53.07;100489.00;5015473;28;20033;-75
2021/10/25 11:16:27;;;;;;;1.65;1.55;;;;;;;18.36;53.55;100483.81;5043620;28;20048;-76
2021/10/25 11:18:56;;;;;;;1.67;1.58;;;;;;;18.19;54.11;100485.47;5054276;28;20078;-76
2021/10/25 11:21:31;;;;;;;2.88;1.90;;;;;;;18.25;54.07;100492.28;5053467;28;20033;-76
2021/10/25 11:24:05;;;;;;;1.85;1.75;;;;;;;18.31;53.85;100487.84;5053291;28;20024;-75
2021/10/25 11:26:32;;;;;;;2.78;2.20;;;;;;;18.47;53.61;100486.56;5054177;28;20037;-75
2021/10/25 11:29:00;;;;;;;5.18;2.40;;;;;;;18.64;53.73;100491.31;5053415;28;20032;-74
2021/10/25 11:31:26;;;;;;;2.00;1.80;;;;;;;18.67;52.95;100476.41;5053155;28;20035;-74
2021/10/25 11:33:56;;;;;;;1.98;1.77;;;;;;;18.95;52.62;100478.28;5053189;28;20021;-74
2021/10/25 11:36:27;;;;;;;2.72;1.67;;;;;;;18.97;52.54;100477.88;5053000;28;20037;-74
2021/10/25 11:38:58;;;;;;;5.10;1.77;;;;;;;19.07;52.43;100475.00;5053037;28;20124;-75
2021/10/25 11:41:24;;;;;;;2.28;1.88;;;;;;;19.23;52.05;100471.66;5053014;28;20479;-74
2021/10/25 11:43:53;;;;;;;1.73;1.63;;;;;;;19.20;51.81;100464.00;5053066;28;20090;-75
2021/10/25 11:46:23;;;;;;;2.72;1.70;;;;;;;19.11;51.32;100461.66;5052952;28;20035;-75
2021/10/25 11:48:58;;;;;;;2.65;1.50;;;;;;;19.08;51.46;100458.88;5053126;28;20036;-74
2021/10/25 11:51:33;;;;;;;1.23;1.23;;;;;;;19.04;51.67;100452.44;5053835;28;20082;-75
2021/10/25 11:54:00;;;;;;;2.25;1.63;;;;;;;19.18;51.49;100460.00;5052801;28;20025;-74
2021/10/25 11:56:29;;;;;;;1.98;1.70;;;;;;;19.09;52.07;100460.47;5052737;28;20060;-75
2021/10/25 11:58:58;;;;;;;1.92;1.50;;;;;;;18.99;52.29;100455.72;5052778;28;20028;-74
2021/10/25 12:01:28;;;;;;;1.65;1.50;;;;;;;19.05;51.92;100463.31;5053878;28;20521;-78
2021/10/25 12:03:53;;;;;;;3.35;3.05;;;;;;;18.90;52.22;100463.81;5052365;28;20021;-73
2021/10/25 12:06:24;;;;;;;1.58;1.48;;;;;;;18.99;52.48;100458.53;5052283;28;20043;-76
2021/10/25 12:09:04;;;;;;;2.08;1.88;;;;;;;18.89;52.47;100451.75;5052903;28;20060;-75
2021/10/25 12:11:50;;;;;;;2.10;2.00;;;;;;;19.06;52.03;100453.63;5052567;28;20529;-75
2021/10/25 12:14:19;;;;;;;2.10;2.00;;;;;;;19.18;52.10;100445.91;5052458;28;20025;-75
2021/10/25 12:16:49;;;;;;;3.70;1.90;;;;;;;18.89;52.48;100446.09;5052079;28;20556;-75
2021/10/25 12:19:15;;;;;;;8.18;1.90;;;;;;;19.07;52.61;100435.50;5052474;28;20025;-75
2021/10/25 12:21:45;;;;;;;1.70;1.60;;;;;;;19.22;52.42;100436.19;5052724;28;20035;-75
2021/10/25 12:24:11;;;;;;;3.28;1.83;;;;;;;19.15;52.44;100436.25;5052376;28;20035;-75
2021/10/25 12:26:41;;;;;;;3.55;1.95;;;;;;;19.07;52.69;100443.97;5051895;28;20033;-74
2021/10/25 12:29:19;;;;;;;2.13;1.70;;;;;;;18.94;53.12;100437.22;5052657;28;20064;-75
2021/10/25 12:31:49;;;;;;;2.97;2.10;;;;;;;18.93;52.93;100441.25;5052242;28;20064;-76
2021/10/25 12:34:15;;;;;;;2.53;1.83;;;;;;;18.82;53.34;100449.78;5052530;28;20032;-75
2021/10/25 12:36:44;;;;;;;2.13;1.70;;;;;;;18.80;53.31;100442.94;5052794;28;20028;-75
2021/10/25 12:39:22;;;;;;;1.63;1.52;;;;;;;18.97;53.11;100455.34;5052228;28;20029;-75
2021/10/25 12:41:56;;;;;;;2.58;1.70;;;;;;;18.68;53.52;100446.25;5052254;28;20033;-79
2021/10/25 12:44:36;;;;;;;3.78;2.35;;;;;;;18.79;53.28;100446.97;5051915;28;20038;-76
2021/10/25 12:47:19;;;;;;;1.90;1.80;;;;;;;18.63;53.66;100444.63;5053579;28;20021;-77
2021/10/25 12:49:49;;;;;;;2.20;2.00;;;;;;;18.65;54.19;100453.50;5052192;28;20021;-76
2021/10/25 12:52:18;;;;;;;5.00;1.73;;;;;;;18.79;54.09;100441.34;5052674;28;20048;-76
2021/10/25 12:54:47;;;;;;;2.25;1.60;;;;;;;18.63;54.10;100430.53;5052367;28;20036;-75
2021/10/25 12:57:22;;;;;;;2.50;2.20;;;;;;;18.71;54.22;100436.97;5052284;28;20017;-77
2021/10/25 13:00:09;;;;;;;3.60;1.65;;;;;;;18.82;53.94;100441.31;5052661;28;20025;-75
2021/10/25 13:02:44;;;;;;;3.10;1.80;;;;;;;18.78;53.82;100434.09;5052645;28;20523;-76
2021/10/25 13:05:25;;;;;;;3.10;2.03;;;;;;;18.67;54.05;100424.88;5052520;28;20116;-76
2021/10/25 13:08:06;;;;;;;4.65;2.30;;;;;;;18.45;54.40;100432.66;5052441;28;20094;-76
2021/10/25 13:10:44;;;;;;;3.38;2.20;;;;;;;18.47;54.65;100427.41;5053007;28;20123;-76
2021/10/25 13:13:17;;;;;;;2.20;2.00;;;;;;;18.43;55.18;100438.72;5054451;28;20501;-75
2021/10/25 13:15:44;;;;;;;3.90;2.03;;;;;;;18.40;55.11;100419.00;5057503;28;20067;-77
2021/10/25 13:18:11;;;;;;;3.75;2.33;;;;;;;18.38;55.09;100429.91;5039389;28;20531;-77
2021/10/25 13:20:41;;;;;;;4.22;1.98;;;;;;;18.54;55.01;100425.38;5057123;28;20103;-74
2021/10/25 13:23:09;;;;;;;3.78;2.20;;;;;;;18.59;54.91;100426.97;5039767;28;20362;-76